Terminal Aerodrome Forecast
Issued by NWS

Home | Current Version | Previous Version | Text Only | Print | Product List | Glossary On
Versions: 1 2 3 4 5 6 7 8 9 10 11 12 13 14 15 16 17 18 19 20
000
FTUS41 KBGM 281131
TAFELM
TAF
KELM 281131Z 2812/2912 00000KT 1/2SM FG OVC002
      TEMPO 2812/2813 3SM BR SCT005
     FM281300 27005KT P6SM FEW045
     FM290000 00000KT P6SM SKC
      TEMPO 2907/2909 2SM BR SCT002
     FM290900 00000KT 1/2SM FG OVC002=

USA.gov is the U.S. government's official web portal to all federal, state and local government web resources and services.